createdAt,value
2023-04-20T00:01:36.649Z,99022.75
2023-04-20T00:04:04.569Z,99021.44
2023-04-20T00:06:32.980Z,99027.97
2023-04-20T00:09:01.190Z,99015.59
2023-04-20T00:11:37.841Z,99014.06
2023-04-20T00:14:05.382Z,99019.41
2023-04-20T00:16:33.092Z,99015.75
2023-04-20T00:19:01.152Z,99007.81
2023-04-20T00:21:28.703Z,99009.53
2023-04-20T00:24:00.916Z,99004.50
2023-04-20T00:26:34.938Z,99009.09
2023-04-20T00:29:03.630Z,99008.88
2023-04-20T00:31:31.961Z,99013.03
2023-04-20T00:33:59.986Z,99003.00
2023-04-20T00:36:27.937Z,99004.84
2023-04-20T00:38:55.579Z,99005.44
2023-04-20T00:41:23.516Z,99001.34
2023-04-20T00:43:54.698Z,99001.38
2023-04-20T00:46:22.411Z,99009.13
2023-04-20T00:48:53.916Z,98998.56
2023-04-20T00:51:22.581Z,99005.44
2023-04-20T00:53:50.040Z,99010.72
2023-04-20T00:56:19.294Z,98999.66
2023-04-20T00:58:47.106Z,99004.94
2023-04-20T01:01:17.679Z,99002.28
2023-04-20T01:03:46.966Z,99010.13
2023-04-20T01:06:15.619Z,99004.84
2023-04-20T01:08:47.741Z,98996.16
2023-04-20T01:11:15.896Z,99004.06
2023-04-20T01:13:43.317Z,99000.59
2023-04-20T01:16:12.029Z,99009.28
2023-04-20T01:18:48.456Z,99007.53
2023-04-20T01:21:17.734Z,99009.16
2023-04-20T01:23:46.138Z,99012.84
2023-04-20T01:26:16.573Z,99007.97
2023-04-20T01:28:44.494Z,99004.38
2023-04-20T01:31:13.007Z,99007.09
2023-04-20T01:33:41.281Z,99004.38
2023-04-20T01:36:09.376Z,99000.78
2023-04-20T01:38:37.201Z,99003.63
2023-04-20T01:41:06.854Z,99000.22
2023-04-20T01:43:35.886Z,98999.41
2023-04-20T01:46:04.040Z,99002.00
2023-04-20T01:48:31.582Z,99000.25
2023-04-20T01:50:59.185Z,99003.69
2023-04-20T01:53:27.136Z,98995.97
2023-04-20T01:56:17.581Z,99001.16
2023-04-20T01:58:47.939Z,98994.94
2023-04-20T02:01:15.954Z,98999.16
2023-04-20T02:03:44.562Z,99003.34
2023-04-20T02:06:15.863Z,99005.31
2023-04-20T02:08:44.823Z,99006.16
2023-04-20T02:11:12.887Z,99005.22
2023-04-20T02:13:41.777Z,99008.75
2023-04-20T02:16:19.125Z,99001.72
2023-04-20T02:18:47.187Z,99006.12
2023-04-20T02:21:14.657Z,99009.28
2023-04-20T02:23:44.372Z,99005.88
2023-04-20T02:26:12.794Z,99011.13
2023-04-20T02:28:41.944Z,99012.09
2023-04-20T02:31:09.337Z,99007.59
2023-04-20T02:33:37.796Z,99006.81
2023-04-20T02:36:05.517Z,99005.06
2023-04-20T02:38:33.706Z,99005.88
2023-04-20T02:41:01.707Z,99009.38
2023-04-20T02:43:30.155Z,98997.19
2023-04-20T02:45:57.767Z,99005.78
2023-04-20T02:48:25.548Z,99009.31
2023-04-20T02:50:56.242Z,99004.91
2023-04-20T02:53:24.991Z,99002.31
2023-04-20T02:55:53.162Z,99004.97
2023-04-20T02:58:21.395Z,99009.34
2023-04-20T03:00:50.743Z,99013.75
2023-04-20T03:03:20.089Z,99015.50
2023-04-20T03:05:47.995Z,99010.31
2023-04-20T03:08:17.008Z,99013.62
2023-04-20T03:10:46.820Z,99013.69
2023-04-20T03:13:15.220Z,99011.88
2023-04-20T03:15:43.838Z,99011.13
2023-04-20T03:18:13.256Z,99010.22
2023-04-20T03:20:40.701Z,99014.53
2023-04-20T03:23:08.594Z,99006.78
2023-04-20T03:25:36.150Z,99010.19
2023-04-20T03:28:04.218Z,99011.09
2023-04-20T03:30:32.462Z,99013.72
2023-04-20T03:33:00.418Z,99007.59
2023-04-20T03:35:28.264Z,99014.44
2023-04-20T03:37:55.941Z,99012.13
2023-04-20T03:40:23.443Z,99026.22
2023-04-20T03:42:51.029Z,99027.19
2023-04-20T03:45:18.787Z,99027.00
2023-04-20T03:47:46.223Z,99035.66
2023-04-20T03:50:13.657Z,99025.13
2023-04-20T03:52:41.318Z,99032.94
2023-04-20T03:55:09.686Z,99027.06
2023-04-20T03:57:38.107Z,99037.00
2023-04-20T04:00:06.797Z,99041.31
2023-04-20T04:02:45.986Z,99041.44
2023-04-20T04:05:14.333Z,99038.94
2023-04-20T04:07:41.759Z,99049.22
2023-04-20T04:10:10.563Z,99035.09
2023-04-20T04:12:39.111Z,99045.03
2023-04-20T04:15:08.306Z,99040.75
2023-04-20T04:17:36.726Z,99039.94
2023-04-20T04:20:09.144Z,99039.22
2023-04-20T04:22:37.113Z,99038.38
2023-04-20T04:25:11.775Z,99040.37
2023-04-20T04:27:53.712Z,99039.19
2023-04-20T04:30:33.847Z,99034.91
2023-04-20T04:33:04.993Z,99039.34
2023-04-20T04:35:34.555Z,99037.59
2023-04-20T04:38:02.320Z,99040.34
2023-04-20T04:40:30.010Z,99032.75
2023-04-20T04:42:58.541Z,99037.31
2023-04-20T04:45:26.259Z,99030.47
2023-04-20T04:47:54.007Z,99040.13
2023-04-20T04:50:55.608Z,99041.22
2023-04-20T04:53:22.960Z,99040.59
2023-04-20T04:55:51.224Z,99035.44
2023-04-20T04:58:21.051Z,99038.06
2023-04-20T05:00:48.827Z,99032.84
2023-04-20T05:03:16.941Z,99038.03
2023-04-20T05:05:46.679Z,99044.97
2023-04-20T05:08:18.341Z,99045.84
2023-04-20T05:10:46.043Z,99046.66
2023-04-20T05:13:15.646Z,99044.78
2023-04-20T05:15:47.202Z,99044.97
2023-04-20T05:18:32.738Z,99045.84
2023-04-20T05:21:01.777Z,99044.91
2023-04-20T05:23:29.473Z,99045.59
2023-04-20T05:25:57.022Z,99049.13
2023-04-20T05:28:44.706Z,99050.06
2023-04-20T05:31:12.175Z,99048.28
2023-04-20T05:33:40.457Z,99050.78
2023-04-20T05:36:10.933Z,99047.87
2023-04-20T05:38:38.822Z,99045.31
2023-04-20T05:41:06.569Z,99043.47
2023-04-20T05:43:34.700Z,99045.19
2023-04-20T05:46:02.162Z,99048.84
2023-04-20T05:48:30.269Z,99059.34
2023-04-20T05:50:59.079Z,99061.22
2023-04-20T05:53:26.918Z,99060.25
2023-04-20T05:55:54.325Z,99059.25
2023-04-20T05:58:22.021Z,99061.06
2023-04-20T06:00:49.491Z,99064.59
2023-04-20T06:03:17.635Z,99071.66
2023-04-20T06:05:45.997Z,99067.38
2023-04-20T06:08:13.424Z,99070.81
2023-04-20T06:10:41.370Z,99067.31
2023-04-20T06:13:08.811Z,99058.69
2023-04-20T06:15:36.638Z,99070.87
2023-04-20T06:18:04.555Z,99069.13
2023-04-20T06:20:32.119Z,99078.69
2023-04-20T06:22:59.580Z,99072.41
2023-04-20T06:25:27.780Z,99075.16
2023-04-20T06:27:55.150Z,99075.03
2023-04-20T06:30:22.639Z,99073.25
2023-04-20T06:32:50.649Z,99075.75
2023-04-20T06:35:18.217Z,99086.34
2023-04-20T06:37:45.604Z,99081.16
2023-04-20T06:40:15.553Z,99076.84
2023-04-20T06:42:44.042Z,99081.22
2023-04-20T06:45:12.034Z,99080.25
2023-04-20T06:47:39.811Z,99087.16
2023-04-20T06:50:09.633Z,99086.25
2023-04-20T06:52:41.094Z,99088.03
2023-04-20T06:55:09.124Z,99092.41
2023-04-20T06:57:38.684Z,99081.84
2023-04-20T07:00:10.364Z,99080.84
2023-04-20T07:02:46.062Z,99090.34
2023-04-20T07:05:14.253Z,99087.59
2023-04-20T07:07:42.437Z,99085.53
2023-04-20T07:10:12.012Z,99087.44
2023-04-20T07:12:42.308Z,99080.31
2023-04-20T07:15:11.361Z,99088.97
2023-04-20T07:17:39.129Z,99079.28
2023-04-20T07:20:10.064Z,99082.28
2023-04-20T07:38:20.836Z,99090.84
2023-04-20T07:40:48.556Z,99086.47
2023-04-20T07:43:15.913Z,99082.00
2023-04-20T07:45:43.302Z,99085.25
2023-04-20T07:48:14.036Z,99096.19
2023-04-20T07:50:41.461Z,99088.97
2023-04-20T07:53:08.909Z,99093.59
2023-04-20T07:55:36.927Z,99083.03
2023-04-20T07:58:04.525Z,99082.75
2023-04-20T08:00:31.889Z,99080.66
2023-04-20T08:03:17.090Z,99084.53
2023-04-20T08:05:45.886Z,99080.34
2023-04-20T08:08:13.375Z,99079.19
2023-04-20T08:10:40.750Z,99087.03
2023-04-20T08:13:08.479Z,99076.59
2023-04-20T08:15:36.041Z,99081.13
2023-04-20T08:18:03.663Z,99090.44
2023-04-20T08:20:31.437Z,99085.81
2023-04-20T08:22:59.502Z,99083.19
2023-04-20T08:25:27.389Z,99090.78
2023-04-20T08:27:55.146Z,99086.72
2023-04-20T08:30:22.531Z,99083.88
2023-04-20T08:32:51.049Z,99083.31
2023-04-20T08:35:19.444Z,99080.09
2023-04-20T08:37:46.825Z,99083.91
2023-04-20T08:40:14.469Z,99076.94
2023-04-20T08:42:42.145Z,99080.09
2023-04-20T08:45:09.582Z,99077.53
2023-04-20T08:47:37.023Z,99072.84
2023-04-20T08:50:06.004Z,99072.59
2023-04-20T08:52:54.255Z,99065.69
2023-04-20T08:55:21.909Z,99070.25
2023-04-20T08:57:50.841Z,99076.78
2023-04-20T09:00:19.643Z,99082.38
2023-04-20T09:02:55.809Z,99076.06
2023-04-20T09:05:30.807Z,99088.44
2023-04-20T09:08:01.203Z,99081.50
2023-04-20T09:10:43.725Z,99071.97
2023-04-20T09:13:22.693Z,99076.63
2023-04-20T09:15:50.122Z,99068.44
2023-04-20T09:18:18.842Z,99081.06
2023-04-20T09:20:46.673Z,99081.78
2023-04-20T09:23:15.874Z,99069.44
2023-04-20T09:25:46.336Z,99064.09
2023-04-20T09:28:14.314Z,99067.91
2023-04-20T09:30:45.272Z,99062.41
2023-04-20T09:33:14.430Z,99057.41
2023-04-20T09:35:43.596Z,99058.31
2023-04-20T09:38:15.770Z,99061.38
2023-04-20T09:40:43.492Z,99074.09
2023-04-20T09:43:16.446Z,99061.59
2023-04-20T09:45:44.362Z,99059.28
2023-04-20T09:48:12.135Z,99066.91
2023-04-20T09:50:48.403Z,99065.53
2023-04-20T09:53:17.730Z,99061.28
2023-04-20T09:55:49.415Z,99069.00
2023-04-20T09:58:19.640Z,99057.81
2023-04-20T10:00:47.229Z,99059.53
2023-04-20T10:03:19.448Z,99055.06
2023-04-20T10:05:47.145Z,99065.63
2023-04-20T10:08:14.841Z,99053.66
2023-04-20T10:10:47.305Z,99060.41
2023-04-20T10:13:16.079Z,99046.66
2023-04-20T10:15:43.554Z,99051.06
2023-04-20T10:18:18.548Z,99053.25
2023-04-20T10:20:46.788Z,99051.47
2023-04-20T10:23:18.736Z,99044.38
2023-04-20T10:26:00.711Z,99037.66
2023-04-20T10:28:41.678Z,99040.63
2023-04-20T10:31:13.071Z,99044.97
2023-04-20T10:33:54.427Z,99043.72
2023-04-20T10:36:24.250Z,99037.72
2023-04-20T10:38:52.635Z,99044.06
2023-04-20T10:41:20.990Z,99045.25
2023-04-20T10:43:48.673Z,99037.84
2023-04-20T10:46:25.495Z,99037.09
2023-04-20T10:48:53.950Z,99036.78
2023-04-20T10:51:21.581Z,99026.00
2023-04-20T10:54:19.022Z,99020.59
2023-04-20T10:56:48.521Z,99021.16
2023-04-20T10:59:18.427Z,99027.50
2023-04-20T11:01:46.973Z,99020.78
2023-04-20T11:04:17.808Z,99019.69
2023-04-20T11:06:48.067Z,99018.25
2023-04-20T11:09:34.898Z,99010.44
2023-04-20T11:12:04.475Z,99011.13
2023-04-20T11:14:34.094Z,99015.28
2023-04-20T11:17:02.114Z,99008.25
2023-04-20T11:19:32.024Z,99006.66
2023-04-20T11:22:01.673Z,99007.47
2023-04-20T11:24:30.940Z,99005.56
2023-04-20T11:26:58.825Z,99006.41
2023-04-20T11:29:34.006Z,99009.38
2023-04-20T11:32:11.311Z,99008.06
2023-04-20T11:34:39.783Z,99011.88
2023-04-20T11:37:09.701Z,99010.44
2023-04-20T11:39:37.772Z,99007.22
2023-04-20T11:42:06.266Z,99004.53
2023-04-20T11:44:36.441Z,99003.19
2023-04-20T11:47:03.986Z,98999.19
2023-04-20T11:49:31.814Z,98997.50
2023-04-20T11:51:59.186Z,99001.63
2023-04-20T11:54:28.397Z,98999.28
2023-04-20T11:56:57.139Z,99001.63
2023-04-20T11:59:25.288Z,98991.22
2023-04-20T12:01:52.750Z,99000.00
2023-04-20T12:04:20.611Z,98994.69
2023-04-20T12:06:48.396Z,98992.28
2023-04-20T12:09:15.896Z,98996.06
2023-04-20T12:11:43.789Z,98992.28
2023-04-20T12:14:11.180Z,98994.06
2023-04-20T12:16:38.594Z,98997.72
2023-04-20T12:19:06.199Z,98993.84
2023-04-20T12:21:33.636Z,98996.06
2023-04-20T12:24:01.227Z,98987.22
2023-04-20T12:26:37.856Z,98991.19
2023-04-20T12:29:10.728Z,98990.66
2023-04-20T12:31:38.501Z,98983.06
2023-04-20T12:34:06.634Z,98985.25
2023-04-20T12:36:35.188Z,98983.34
2023-04-20T12:39:03.749Z,98983.28
2023-04-20T12:41:31.411Z,98977.81
2023-04-20T12:43:58.777Z,98983.53
2023-04-20T12:46:27.028Z,98983.00
2023-04-20T12:48:54.469Z,98985.19
2023-04-20T12:51:21.841Z,98975.47
2023-04-20T12:53:49.486Z,98972.41
2023-04-20T12:56:16.836Z,98970.31
2023-04-20T12:58:44.569Z,98965.47
2023-04-20T13:01:12.326Z,98962.81
2023-04-20T13:03:40.680Z,98961.84
2023-04-20T13:06:08.243Z,98968.38
2023-04-20T13:08:37.231Z,98966.50
2023-04-20T13:11:05.243Z,98966.16
2023-04-20T13:13:32.626Z,98965.47
2023-04-20T13:16:00.358Z,98963.50
2023-04-20T13:18:27.768Z,98958.19
2023-04-20T13:20:55.078Z,98956.69
2023-04-20T13:23:22.760Z,98952.50
2023-04-20T13:25:51.617Z,98956.97
2023-04-20T13:28:19.375Z,98954.69
2023-04-20T13:30:47.063Z,98955.88
2023-04-20T13:33:14.473Z,98958.44
2023-04-20T13:35:42.977Z,98954.47
2023-04-20T13:38:10.882Z,98953.28
2023-04-20T13:40:38.282Z,98957.13
2023-04-20T13:43:05.673Z,98954.78
2023-04-20T13:45:33.325Z,98953.03
2023-04-20T13:48:00.824Z,98955.78
2023-04-20T13:50:28.220Z,98955.31
2023-04-20T13:52:55.884Z,98952.34
2023-04-20T13:55:24.962Z,98948.78
2023-04-20T13:57:53.016Z,98942.13
2023-04-20T14:00:21.740Z,98939.00
2023-04-20T14:02:49.453Z,98938.53
2023-04-20T14:05:16.877Z,98942.19
2023-04-20T14:07:44.285Z,98932.50
2023-04-20T14:10:11.955Z,98936.25
2023-04-20T14:12:41.990Z,98929.41
2023-04-20T14:15:09.736Z,98933.59
2023-04-20T14:17:37.432Z,98929.56
2023-04-20T14:20:07.048Z,98922.59
2023-04-20T14:22:36.618Z,98923.16
2023-04-20T14:25:05.075Z,98923.97
2023-04-20T14:27:32.608Z,98914.62
2023-04-20T14:30:00.053Z,98911.87
2023-04-20T14:32:27.798Z,98910.44
2023-04-20T14:34:55.227Z,98914.09
2023-04-20T14:37:24.960Z,98905.41
2023-04-20T14:39:52.885Z,98910.37
2023-04-20T14:42:21.258Z,98897.13
2023-04-20T14:44:48.983Z,98908.25
2023-04-20T14:47:16.599Z,98898.72
2023-04-20T14:49:44.602Z,98889.44
2023-04-20T14:52:12.181Z,98900.66
2023-04-20T14:54:39.864Z,98894.41
2023-04-20T14:57:07.247Z,98896.66
2023-04-20T14:59:34.574Z,98894.69
2023-04-20T15:02:03.360Z,98887.56
2023-04-20T15:04:31.222Z,98888.44
2023-04-20T15:31:50.966Z,98900.78
2023-04-20T15:34:18.917Z,98898.28
2023-04-20T15:36:46.490Z,98904.13
2023-04-20T15:39:13.909Z,98901.53
2023-04-20T15:41:41.621Z,98900.00
2023-04-20T15:44:08.985Z,98892.75
2023-04-20T15:46:38.462Z,98886.38
2023-04-20T15:49:06.253Z,98885.22
2023-04-20T15:51:33.613Z,98892.69
2023-04-20T15:54:01.740Z,98896.59
2023-04-20T15:56:29.401Z,98901.16
2023-04-20T15:58:56.749Z,98895.09
2023-04-20T16:01:24.138Z,98891.88
2023-04-20T16:03:52.021Z,98894.34
2023-04-20T16:06:19.597Z,98897.50
2023-04-20T16:08:49.541Z,98896.34
2023-04-20T16:11:17.268Z,98895.41
2023-04-20T16:13:44.768Z,98888.13
2023-04-20T16:16:12.268Z,98893.03
2023-04-20T16:18:40.045Z,98884.19
2023-04-20T16:21:07.490Z,98888.69
2023-04-20T16:23:34.827Z,98884.47
2023-04-20T16:26:02.969Z,98892.22
2023-04-20T16:28:30.849Z,98887.06
2023-04-20T16:30:58.960Z,98893.38
2023-04-20T16:33:27.061Z,98890.88
2023-04-20T16:35:54.424Z,98889.28
2023-04-20T16:38:22.658Z,98895.03
2023-04-20T16:40:52.536Z,98895.06
2023-04-20T16:43:19.921Z,98903.87
2023-04-20T16:45:48.413Z,98906.09
2023-04-20T16:48:16.103Z,98910.66
2023-04-20T16:50:43.903Z,98915.97
2023-04-20T16:53:11.343Z,98917.78
2023-04-20T16:55:39.081Z,98916.06
2023-04-20T16:58:06.527Z,98911.34
2023-04-20T17:00:34.032Z,98915.00
2023-04-20T17:03:06.910Z,98915.47
2023-04-20T17:05:39.014Z,98919.59
2023-04-20T17:08:10.356Z,98916.47
2023-04-20T17:10:38.536Z,98921.56
2023-04-20T17:13:06.094Z,98924.00
2023-04-20T17:15:33.993Z,98922.41
2023-04-20T17:18:01.645Z,98931.09
2023-04-20T17:20:29.056Z,98937.47
2023-04-20T17:22:56.966Z,98932.94
2023-04-20T17:25:24.694Z,98933.97
2023-04-20T17:27:52.121Z,98935.88
2023-04-20T17:30:21.178Z,98941.75
2023-04-20T17:32:48.579Z,98937.75
2023-04-20T17:35:16.042Z,98946.91
2023-04-20T17:37:44.123Z,98941.13
2023-04-20T17:40:11.727Z,98953.38
2023-04-20T17:42:40.668Z,98959.09
2023-04-20T17:45:09.458Z,98963.94
2023-04-20T17:47:37.167Z,98957.37
2023-04-20T17:50:04.908Z,98962.16
2023-04-20T17:52:32.980Z,98970.16
2023-04-20T17:55:00.941Z,98972.47
2023-04-20T17:57:29.042Z,98968.34
2023-04-20T17:59:57.406Z,98970.63
2023-04-20T18:02:25.858Z,98972.22
2023-04-20T18:04:57.624Z,98971.84
2023-04-20T18:07:25.549Z,98980.22
2023-04-20T18:09:52.880Z,98973.06
2023-04-20T18:12:21.150Z,98975.44
2023-04-20T18:14:48.809Z,98978.19
2023-04-20T18:17:16.702Z,98989.13
2023-04-20T18:19:44.887Z,98994.22
2023-04-20T18:22:12.819Z,98987.84
2023-04-20T18:24:41.555Z,98990.47
2023-04-20T18:27:09.929Z,99004.28
2023-04-20T18:29:38.161Z,99000.81
2023-04-20T18:32:05.951Z,99013.78
2023-04-20T18:34:34.803Z,99026.56
2023-04-20T18:37:03.149Z,99018.34
2023-04-20T18:39:31.254Z,99020.53
2023-04-20T18:41:59.324Z,99017.66
2023-04-20T18:44:29.248Z,99019.91
2023-04-20T18:46:57.310Z,99034.47
2023-04-20T18:49:26.671Z,99034.94
2023-04-20T18:51:54.532Z,99027.97
2023-04-20T18:54:22.671Z,99029.50
2023-04-20T18:56:51.094Z,99027.47
2023-04-20T18:59:19.186Z,99036.22
2023-04-20T19:01:49.038Z,99038.50
2023-04-20T19:04:18.416Z,99040.16
2023-04-20T19:06:46.414Z,99039.72
2023-04-20T19:09:16.409Z,99044.00
2023-04-20T19:11:44.956Z,99054.00
2023-04-20T19:14:12.910Z,99053.81
2023-04-20T19:16:41.480Z,99044.03
2023-04-20T19:19:11.043Z,99050.56
2023-04-20T19:21:39.540Z,99053.34
2023-04-20T19:24:08.305Z,99050.50
2023-04-20T19:26:37.502Z,99046.53
2023-04-20T19:29:05.659Z,99055.13
2023-04-20T19:31:38.875Z,99057.78
2023-04-20T19:34:08.972Z,99046.47
2023-04-20T19:36:37.070Z,99057.72
2023-04-20T19:39:17.629Z,99060.16
2023-04-20T19:41:46.144Z,99063.31
2023-04-20T19:44:15.069Z,99064.06
2023-04-20T19:46:44.851Z,99069.97
2023-04-20T19:49:14.102Z,99068.56
2023-04-20T19:51:42.362Z,99068.91
2023-04-20T19:54:11.115Z,99072.69
2023-04-20T19:56:39.687Z,99073.69
2023-04-20T19:59:08.026Z,99073.78
2023-04-20T20:01:37.360Z,99073.84
2023-04-20T20:04:05.721Z,99075.25
2023-04-20T20:06:34.971Z,99075.56
2023-04-20T20:09:04.099Z,99079.81
2023-04-20T20:11:33.631Z,99070.06
2023-04-20T20:14:01.855Z,99078.25
2023-04-20T20:16:29.454Z,99081.84
2023-04-20T20:18:59.827Z,99079.56
2023-04-20T20:21:27.458Z,99079.50
2023-04-20T20:23:55.004Z,99082.94
2023-04-20T20:26:23.038Z,99077.81
2023-04-20T20:28:50.983Z,99081.31
2023-04-20T20:31:19.301Z,99085.06
2023-04-20T20:33:47.301Z,99084.44
2023-04-20T20:36:17.911Z,99082.78
2023-04-20T20:38:45.932Z,99076.69
2023-04-20T20:41:13.668Z,99088.06
2023-04-20T20:43:43.827Z,99081.09
2023-04-20T20:46:11.497Z,99082.47
2023-04-20T20:48:39.183Z,99088.69
2023-04-20T20:51:06.578Z,99093.06
2023-04-20T20:53:34.002Z,99097.50
2023-04-20T20:56:01.967Z,99095.03
2023-04-20T20:58:29.322Z,99093.44
2023-04-20T21:00:56.864Z,99089.78
2023-04-20T21:03:24.857Z,99090.00
2023-04-20T21:05:52.463Z,99090.72
2023-04-20T21:08:19.884Z,99092.69
2023-04-20T21:10:47.806Z,99099.66
2023-04-20T21:13:15.848Z,99092.69
2023-04-20T21:15:43.799Z,99095.41
2023-04-20T21:18:11.974Z,99099.31
2023-04-20T21:20:39.395Z,99096.63
2023-04-20T21:23:06.770Z,99089.75
2023-04-20T21:25:34.398Z,99095.78
2023-04-20T21:28:20.347Z,99095.78
2023-04-20T21:30:47.875Z,99099.19
2023-04-20T21:33:15.373Z,99101.50
2023-04-20T21:35:42.824Z,99108.66
2023-04-20T21:38:10.808Z,99108.53
2023-04-20T21:40:38.251Z,99114.84
2023-04-20T21:43:05.684Z,99112.28
2023-04-20T21:45:33.336Z,99107.13
2023-04-20T21:48:00.782Z,99109.56
2023-04-20T21:50:28.862Z,99101.97
2023-04-20T21:52:56.591Z,99101.97
2023-04-20T21:55:23.984Z,99106.31
2023-04-20T21:57:51.379Z,99106.44
2023-04-20T22:00:20.202Z,99100.34
2023-04-20T22:02:49.337Z,99097.84
2023-04-20T22:05:17.728Z,99097.91
2023-04-20T22:07:45.969Z,99105.00
2023-04-20T22:10:13.713Z,99105.97
2023-04-20T22:12:42.302Z,99100.69
2023-04-20T22:15:11.807Z,99100.75
2023-04-20T22:17:40.600Z,99097.38
2023-04-20T22:20:10.010Z,99102.59
2023-04-20T22:22:37.992Z,99098.25
2023-04-20T22:25:07.618Z,99101.75
2023-04-20T22:27:35.869Z,99094.81
2023-04-20T22:30:04.779Z,99103.66
2023-04-20T22:32:32.480Z,99098.44
2023-04-20T22:34:59.849Z,99104.50
2023-04-20T22:37:27.201Z,99100.16
2023-04-20T22:39:57.203Z,99102.78
2023-04-20T22:42:25.353Z,99097.53
2023-04-20T22:44:52.713Z,99093.31
2023-04-20T22:47:20.484Z,99101.13
2023-04-20T22:49:49.058Z,99095.91
2023-04-20T22:52:16.434Z,99094.25
2023-04-20T22:54:48.178Z,99099.38
2023-04-20T22:57:16.194Z,99105.38
2023-04-20T22:59:44.145Z,99094.25
2023-04-20T23:02:11.554Z,99098.62
2023-04-20T23:04:39.298Z,99103.00
2023-04-20T23:07:08.223Z,99094.28
2023-04-20T23:09:41.118Z,99096.06
2023-04-20T23:12:09.784Z,99099.56
2023-04-20T23:14:42.684Z,99099.59
2023-04-20T23:17:10.666Z,99108.28
2023-04-20T23:19:38.518Z,99102.19
2023-04-20T23:22:08.890Z,99103.06
2023-04-20T23:24:36.657Z,99112.62
2023-04-20T23:27:05.317Z,99103.97
2023-04-20T23:29:33.162Z,99108.28
2023-04-20T23:32:01.421Z,99104.81
2023-04-20T23:34:28.922Z,99097.84
2023-04-20T23:36:56.657Z,99100.47
2023-04-20T23:39:24.319Z,99098.75
2023-04-20T23:41:51.720Z,99103.97
2023-04-20T23:44:19.096Z,99096.16
2023-04-20T23:46:46.745Z,99103.09
2023-04-20T23:49:14.122Z,99098.78
2023-04-20T23:51:42.094Z,99093.56
2023-04-20T23:54:09.736Z,99094.41
2023-04-20T23:56:37.130Z,99087.47
2023-04-20T23:59:05.538Z,99096.16
